createdAt,value
2022-10-08T00:01:20.299Z,10.64
2022-10-08T00:03:50.693Z,10.77
2022-10-08T00:06:21.141Z,10.76
2022-10-08T00:08:54.081Z,10.77
2022-10-08T00:11:40.728Z,10.80
2022-10-08T00:14:09.423Z,10.68
2022-10-08T00:16:39.685Z,10.69
2022-10-08T00:19:10.772Z,10.72
2022-10-08T00:21:40.222Z,10.79
2022-10-08T00:24:09.500Z,10.74
2022-10-08T00:26:42.654Z,10.87
2022-10-08T00:29:13.909Z,10.88
2022-10-08T00:31:44.102Z,10.87
2022-10-08T00:34:14.885Z,10.89
2022-10-08T00:36:42.169Z,10.78
2022-10-08T00:39:11.618Z,10.89
2022-10-08T00:41:39.415Z,10.78
2022-10-08T00:44:47.293Z,11.00
2022-10-08T00:47:23.019Z,10.89
2022-10-08T00:49:53.647Z,10.95
2022-10-08T00:52:22.789Z,10.99
2022-10-08T00:54:51.999Z,10.61
2022-10-08T00:57:21.444Z,10.72
2022-10-08T00:59:48.556Z,10.94
2022-10-08T01:02:15.956Z,11.06
2022-10-08T01:04:44.016Z,11.05
2022-10-08T01:07:54.382Z,11.18
2022-10-08T01:10:31.228Z,11.18
2022-10-08T01:13:11.439Z,11.05
2022-10-08T01:15:57.077Z,11.22
2022-10-08T01:18:44.143Z,11.29
2022-10-08T01:21:11.048Z,10.95
2022-10-08T01:24:08.768Z,11.37
2022-10-08T01:27:03.063Z,11.37
2022-10-08T01:29:41.095Z,11.34
2022-10-08T01:32:14.116Z,11.27
2022-10-08T01:34:48.180Z,11.26
2022-10-08T01:37:38.863Z,11.56
2022-10-08T01:40:12.519Z,11.56
2022-10-08T01:42:41.232Z,11.52
2022-10-08T01:45:13.918Z,10.96
2022-10-08T01:47:44.284Z,11.58
2022-10-08T01:50:55.925Z,11.65
2022-10-08T01:53:26.073Z,11.35
2022-10-08T01:55:55.856Z,11.57
2022-10-08T01:58:30.519Z,11.52
2022-10-08T02:01:05.553Z,11.58
2022-10-08T02:03:32.682Z,11.61
2022-10-08T02:06:02.685Z,11.44
2022-10-08T02:08:29.791Z,10.60
2022-10-08T02:10:56.923Z,11.47
2022-10-08T02:13:24.073Z,11.50
2022-10-08T02:15:54.028Z,11.66
2022-10-08T02:18:30.607Z,11.27
2022-10-08T02:21:25.083Z,11.73
2022-10-08T02:23:58.181Z,11.45
2022-10-08T02:26:33.763Z,11.55
2022-10-08T02:29:14.914Z,11.59
2022-10-08T02:31:50.028Z,11.70
2022-10-08T02:34:44.761Z,11.74
2022-10-08T02:37:21.228Z,11.72
2022-10-08T02:39:56.880Z,10.99
2022-10-08T02:42:25.830Z,11.66
2022-10-08T02:45:10.427Z,11.71
2022-10-08T02:47:40.283Z,11.72
2022-10-08T02:50:12.753Z,11.64
2022-10-08T02:52:43.732Z,11.68
2022-10-08T02:55:40.335Z,11.80
2022-10-08T02:58:11.024Z,11.67
2022-10-08T03:00:44.477Z,11.64
2022-10-08T03:03:19.958Z,11.55
2022-10-08T03:05:49.115Z,11.73
2022-10-08T03:08:17.265Z,11.69
2022-10-08T03:10:45.018Z,11.56
2022-10-08T03:13:13.144Z,11.74
2022-10-08T03:15:42.172Z,11.58
2022-10-08T03:18:11.997Z,11.72
2022-10-08T03:20:45.083Z,11.77
2022-10-08T03:23:15.614Z,11.71
2022-10-08T03:25:42.663Z,11.42
2022-10-08T03:28:09.840Z,11.85
2022-10-08T03:30:37.112Z,11.82
2022-10-08T03:33:04.326Z,11.81
2022-10-08T03:35:32.119Z,11.83
2022-10-08T03:37:59.218Z,11.69
2022-10-08T03:40:26.301Z,11.84
2022-10-08T03:42:53.240Z,11.83
2022-10-08T03:45:20.304Z,11.74
2022-10-08T03:47:51.720Z,11.71
2022-10-08T03:50:20.851Z,11.44
2022-10-08T03:52:48.125Z,11.64
2022-10-08T03:55:15.471Z,11.24
2022-10-08T03:57:42.413Z,11.17
2022-10-08T04:00:10.207Z,11.68
2022-10-08T04:02:37.394Z,11.65
2022-10-08T04:05:04.717Z,10.86
2022-10-08T04:07:31.598Z,11.87
2022-10-08T04:09:58.480Z,11.87
2022-10-08T04:12:25.537Z,11.77
2022-10-08T04:14:52.518Z,11.79
2022-10-08T04:17:19.563Z,11.55
2022-10-08T04:19:46.612Z,11.39
2022-10-08T04:22:13.709Z,11.81
2022-10-08T04:24:40.885Z,11.93
2022-10-08T04:27:07.920Z,11.88
2022-10-08T04:29:34.878Z,11.83
2022-10-08T04:32:01.776Z,11.92
2022-10-08T04:34:30.017Z,11.97
2022-10-08T04:36:57.061Z,11.95
2022-10-08T04:39:23.996Z,11.97
2022-10-08T04:41:51.082Z,11.90
2022-10-08T04:44:18.185Z,12.10
2022-10-08T04:46:45.215Z,12.11
2022-10-08T04:49:12.278Z,11.75
2022-10-08T04:51:39.551Z,12.01
2022-10-08T04:54:06.719Z,12.08
2022-10-08T04:56:36.346Z,11.30
2022-10-08T04:59:04.719Z,12.25
2022-10-08T05:01:31.978Z,12.10
2022-10-08T05:03:59.629Z,12.25
2022-10-08T05:06:30.440Z,12.27
2022-10-08T05:08:59.974Z,12.24
2022-10-08T05:11:27.694Z,12.45
2022-10-08T05:13:56.494Z,12.20
2022-10-08T05:16:24.760Z,12.47
2022-10-08T05:18:52.725Z,12.58
2022-10-08T05:21:23.796Z,12.63
2022-10-08T05:23:55.845Z,12.67
2022-10-08T05:26:46.580Z,12.53
2022-10-08T05:29:14.003Z,12.59
2022-10-08T05:31:40.971Z,12.77
2022-10-08T05:34:07.998Z,12.72
2022-10-08T05:36:35.393Z,12.82
2022-10-08T05:39:04.370Z,12.78
2022-10-08T05:41:33.953Z,12.77
2022-10-08T05:44:04.039Z,12.73
2022-10-08T05:46:32.736Z,12.90
2022-10-08T05:49:02.250Z,12.84
2022-10-08T05:51:30.009Z,12.34
2022-10-08T05:53:59.310Z,12.32
2022-10-08T05:56:27.993Z,12.46
2022-10-08T05:58:55.272Z,12.79
2022-10-08T06:01:25.453Z,12.57
2022-10-08T06:03:57.374Z,12.84
2022-10-08T06:06:25.758Z,12.46
2022-10-08T06:09:02.078Z,12.96
2022-10-08T06:11:31.087Z,12.91
2022-10-08T06:14:00.289Z,12.79
2022-10-08T06:16:29.872Z,12.79
2022-10-08T06:18:57.173Z,12.31
2022-10-08T06:21:26.483Z,12.56
2022-10-08T06:24:00.223Z,12.91
2022-10-08T06:26:35.194Z,12.90
2022-10-08T06:29:05.645Z,13.06
2022-10-08T06:31:34.936Z,13.10
2022-10-08T06:34:05.467Z,13.05
2022-10-08T06:36:34.184Z,12.83
2022-10-08T06:39:13.124Z,13.19
2022-10-08T06:41:40.089Z,13.38
2022-10-08T06:44:10.643Z,13.04
2022-10-08T06:46:38.289Z,13.57
2022-10-08T06:49:06.892Z,13.65
2022-10-08T06:51:35.724Z,13.65
2022-10-08T06:54:07.397Z,13.82
2022-10-08T06:56:36.573Z,14.21
2022-10-08T06:59:05.043Z,14.46
2022-10-08T07:01:34.089Z,14.61
2022-10-08T07:04:02.425Z,14.91
2022-10-08T07:06:29.778Z,15.02
2022-10-08T07:08:59.658Z,15.07
2022-10-08T07:11:28.019Z,15.17
2022-10-08T07:13:55.921Z,15.29
2022-10-08T07:16:24.796Z,15.46
2022-10-08T07:18:53.438Z,15.57
2022-10-08T07:21:21.753Z,15.80
2022-10-08T07:23:49.419Z,15.46
2022-10-08T07:26:26.063Z,16.34
2022-10-08T07:29:00.993Z,16.56
2022-10-08T07:31:31.543Z,16.37
2022-10-08T07:34:00.541Z,16.74
2022-10-08T07:36:29.026Z,16.76
2022-10-08T07:39:01.644Z,16.52
2022-10-08T07:41:32.669Z,16.71
2022-10-08T07:44:01.980Z,16.64
2022-10-08T07:46:42.111Z,16.70
2022-10-08T07:49:09.199Z,16.98
2022-10-08T07:51:36.374Z,17.44
2022-10-08T07:54:06.162Z,17.80
2022-10-08T07:56:34.675Z,18.11
2022-10-08T07:59:02.757Z,18.76
2022-10-08T08:01:31.554Z,19.64
2022-10-08T08:04:02.323Z,20.92
2022-10-08T08:06:32.374Z,22.10
2022-10-08T08:09:02.588Z,23.51
2022-10-08T08:11:30.376Z,24.72
2022-10-08T08:13:57.512Z,25.76
2022-10-08T08:16:26.685Z,26.73
2022-10-08T08:18:58.233Z,26.71
2022-10-08T08:21:27.864Z,26.48
2022-10-08T08:23:56.730Z,26.27
2022-10-08T08:26:26.765Z,25.81
2022-10-08T08:28:56.225Z,24.99
2022-10-08T08:31:24.825Z,24.37
2022-10-08T08:33:54.811Z,23.66
2022-10-08T08:36:29.783Z,22.96
2022-10-08T08:38:57.538Z,22.31
2022-10-08T08:41:30.454Z,21.41
2022-10-08T08:44:01.680Z,20.65
2022-10-08T08:46:32.981Z,20.44
2022-10-08T08:49:07.735Z,19.83
2022-10-08T08:51:35.082Z,19.95
2022-10-08T08:54:02.106Z,19.39
2022-10-08T08:56:30.006Z,19.21
2022-10-08T08:58:59.710Z,19.12
2022-10-08T09:01:37.059Z,18.74
2022-10-08T09:04:17.581Z,18.59
2022-10-08T09:06:45.807Z,18.46
2022-10-08T09:09:28.190Z,18.25
2022-10-08T09:11:55.866Z,17.88
2022-10-08T09:14:35.040Z,17.27
2022-10-08T09:17:14.148Z,17.55
2022-10-08T09:19:41.611Z,17.38
2022-10-08T09:22:23.700Z,17.52
2022-10-08T09:24:54.770Z,17.70
2022-10-08T09:27:21.922Z,17.63
2022-10-08T09:29:48.976Z,18.09
2022-10-08T09:32:20.752Z,18.40
2022-10-08T09:34:49.001Z,18.54
2022-10-08T09:37:23.641Z,18.54
2022-10-08T09:40:08.675Z,19.05
2022-10-08T09:42:35.670Z,18.95
2022-10-08T09:45:05.382Z,18.77
2022-10-08T09:47:32.375Z,19.51
2022-10-08T09:50:22.012Z,19.82
2022-10-08T09:52:53.132Z,19.98
2022-10-08T09:55:31.244Z,19.77
2022-10-08T09:58:05.791Z,20.21
2022-10-08T10:00:38.355Z,20.27
2022-10-08T10:03:07.747Z,20.39
2022-10-08T10:05:37.030Z,20.55
2022-10-08T10:08:04.636Z,20.85
2022-10-08T10:10:38.729Z,20.70
2022-10-08T10:13:34.512Z,20.47
2022-10-08T10:16:10.405Z,20.44
2022-10-08T10:18:49.090Z,20.26
2022-10-08T10:21:21.330Z,19.84
2022-10-08T10:24:23.684Z,19.79
2022-10-08T10:26:54.415Z,19.40
2022-10-08T10:29:25.367Z,19.00
2022-10-08T10:32:04.087Z,19.19
2022-10-08T10:34:36.328Z,19.01
2022-10-08T10:37:14.124Z,19.10
2022-10-08T10:40:16.367Z,19.06
2022-10-08T10:42:56.175Z,18.85
2022-10-08T10:45:31.325Z,18.70
2022-10-08T10:47:58.474Z,18.62
2022-10-08T10:50:35.289Z,18.55
2022-10-08T10:53:08.834Z,18.63
2022-10-08T10:55:44.890Z,18.30
2022-10-08T10:58:28.159Z,18.20
2022-10-08T11:01:03.510Z,17.98
2022-10-08T11:03:57.642Z,17.68
2022-10-08T11:06:39.788Z,18.13
2022-10-08T11:09:09.893Z,17.86
2022-10-08T11:11:44.554Z,17.90
2022-10-08T11:14:38.668Z,17.87
2022-10-08T11:17:31.699Z,17.96
2022-10-08T11:20:10.656Z,18.00
2022-10-08T11:23:06.075Z,17.95
2022-10-08T11:26:10.689Z,17.73
2022-10-08T11:29:07.303Z,17.93
2022-10-08T11:31:50.958Z,18.12
2022-10-08T11:34:32.975Z,18.20
2022-10-08T11:37:19.009Z,18.27
2022-10-08T11:40:07.677Z,18.28
2022-10-08T11:43:08.718Z,18.30
2022-10-08T11:45:46.186Z,18.20
2022-10-08T11:48:34.674Z,18.14
2022-10-08T11:51:20.178Z,17.99
2022-10-08T11:54:26.257Z,17.88
2022-10-08T11:57:55.910Z,17.86
2022-10-08T12:00:41.976Z,17.79
2022-10-08T12:03:24.137Z,17.77
2022-10-08T12:05:54.591Z,17.69
2022-10-08T12:08:53.443Z,17.71
2022-10-08T12:11:29.876Z,17.65
2022-10-08T12:14:14.908Z,17.43
2022-10-08T12:16:47.927Z,17.06
2022-10-08T12:19:36.178Z,17.44
2022-10-08T12:22:25.205Z,17.22
2022-10-08T12:24:57.110Z,17.31
2022-10-08T12:27:25.371Z,17.34
2022-10-08T12:30:14.347Z,17.39
2022-10-08T12:32:44.226Z,17.28
2022-10-08T12:35:40.194Z,17.35
2022-10-08T12:38:16.311Z,17.28
2022-10-08T12:40:58.974Z,17.07
2022-10-08T12:44:06.833Z,16.87
2022-10-08T12:46:52.966Z,17.14
2022-10-08T12:50:18.833Z,17.09
2022-10-08T12:52:46.491Z,16.79
2022-10-08T12:55:19.868Z,16.79
2022-10-08T12:57:50.375Z,16.86
2022-10-08T13:00:25.531Z,16.35
2022-10-08T13:03:00.922Z,16.83
2022-10-08T13:05:35.818Z,16.76
2022-10-08T13:08:42.777Z,16.88
2022-10-08T13:11:15.422Z,16.77
2022-10-08T13:13:51.350Z,16.64
2022-10-08T13:16:24.491Z,16.66
2022-10-08T13:18:59.878Z,16.56
2022-10-08T13:21:32.939Z,16.60
2022-10-08T13:24:03.081Z,15.86
2022-10-08T13:26:59.308Z,16.63
2022-10-08T13:29:34.376Z,15.98
2022-10-08T13:32:06.613Z,16.41
2022-10-08T13:34:39.400Z,16.40
2022-10-08T13:37:11.255Z,16.26
2022-10-08T13:39:41.738Z,16.20
2022-10-08T13:42:16.906Z,16.15
2022-10-08T13:44:44.812Z,16.13
2022-10-08T13:47:17.687Z,16.20
2022-10-08T13:49:45.122Z,16.10
2022-10-08T13:52:24.459Z,16.11
2022-10-08T13:54:58.984Z,16.12
2022-10-08T13:57:26.343Z,15.62
2022-10-08T13:59:53.460Z,15.95
2022-10-08T14:02:20.605Z,15.04
2022-10-08T14:04:47.615Z,15.89
2022-10-08T14:07:35.649Z,16.10
2022-10-08T14:10:03.904Z,15.48
2022-10-08T14:12:34.090Z,16.01
2022-10-08T14:15:01.574Z,16.04
2022-10-08T14:17:30.314Z,15.99
2022-10-08T14:19:57.490Z,15.80
2022-10-08T14:22:25.066Z,15.42
2022-10-08T14:24:52.706Z,15.88
2022-10-08T14:27:19.799Z,15.49
2022-10-08T14:29:46.762Z,15.34
2022-10-08T14:32:13.944Z,15.63
2022-10-08T14:34:41.138Z,15.64
2022-10-08T14:37:09.750Z,15.70
2022-10-08T14:39:36.747Z,15.54
2022-10-08T14:42:04.044Z,15.65
2022-10-08T14:44:31.106Z,15.64
2022-10-08T14:46:58.092Z,15.61
2022-10-08T14:49:25.061Z,15.01
2022-10-08T14:51:52.032Z,15.53
2022-10-08T14:54:19.410Z,15.49
2022-10-08T14:56:46.699Z,15.47
2022-10-08T14:59:14.106Z,15.37
2022-10-08T15:01:41.292Z,15.20
2022-10-08T15:04:08.834Z,15.17
2022-10-08T15:06:36.081Z,15.15
2022-10-08T15:09:03.222Z,15.20
2022-10-08T15:11:30.319Z,15.14
2022-10-08T15:13:58.844Z,15.14
2022-10-08T15:16:25.955Z,15.13
2022-10-08T15:18:52.954Z,15.02
2022-10-08T15:21:20.065Z,15.05
2022-10-08T15:23:47.216Z,14.93
2022-10-08T15:26:16.240Z,14.96
2022-10-08T15:28:44.611Z,14.53
2022-10-08T15:31:19.215Z,14.95
2022-10-08T15:33:48.614Z,14.87
2022-10-08T15:36:24.051Z,14.95
2022-10-08T15:39:01.125Z,14.91
2022-10-08T15:41:30.742Z,14.73
2022-10-08T15:44:08.945Z,14.55
2022-10-08T15:46:36.572Z,14.80
2022-10-08T15:49:03.965Z,14.60
2022-10-08T15:51:32.080Z,14.54
2022-10-08T15:54:00.019Z,14.40
2022-10-08T15:56:27.798Z,13.94
2022-10-08T15:58:55.050Z,14.33
2022-10-08T16:01:23.639Z,13.90
2022-10-08T16:03:53.275Z,14.21
2022-10-08T16:06:27.177Z,14.48
2022-10-08T16:08:57.133Z,14.33
2022-10-08T16:11:27.828Z,14.39
2022-10-08T16:13:58.931Z,14.44
2022-10-08T16:16:26.170Z,14.23
2022-10-08T16:19:02.081Z,14.41
2022-10-08T16:21:30.392Z,13.97
2022-10-08T16:23:58.615Z,13.98
2022-10-08T16:26:26.377Z,14.35
2022-10-08T16:28:56.970Z,14.46
2022-10-08T16:31:25.812Z,14.43
2022-10-08T16:34:01.229Z,14.30
2022-10-08T16:36:30.530Z,14.41
2022-10-08T16:38:58.368Z,13.44
2022-10-08T16:41:27.718Z,13.81
2022-10-08T16:43:57.841Z,14.39
2022-10-08T16:46:29.826Z,14.38
2022-10-08T16:49:02.538Z,14.29
2022-10-08T16:51:31.715Z,14.28
2022-10-08T16:54:00.180Z,14.09
2022-10-08T16:56:29.979Z,14.20
2022-10-08T16:58:59.562Z,14.24
2022-10-08T17:01:27.088Z,13.94
2022-10-08T17:03:55.056Z,14.15
2022-10-08T17:06:23.856Z,13.54
2022-10-08T17:08:52.136Z,13.98
2022-10-08T17:11:20.810Z,14.05
2022-10-08T17:13:50.810Z,13.75
2022-10-08T17:16:20.255Z,13.99
2022-10-08T17:18:47.533Z,13.96
2022-10-08T17:21:14.916Z,13.94
2022-10-08T17:23:42.443Z,13.86
2022-10-08T17:26:12.733Z,13.87
2022-10-08T17:28:43.812Z,13.97
2022-10-08T17:31:16.796Z,13.48
2022-10-08T17:33:44.305Z,13.93
2022-10-08T17:36:16.006Z,13.50
2022-10-08T17:38:44.643Z,13.85
2022-10-08T17:41:15.049Z,13.84
2022-10-08T17:43:43.266Z,14.00
2022-10-08T17:46:13.171Z,13.67
2022-10-08T17:48:41.009Z,13.40
2022-10-08T17:51:11.329Z,13.96
2022-10-08T17:53:39.060Z,13.90
2022-10-08T17:56:08.388Z,13.87
2022-10-08T17:58:36.081Z,13.90
2022-10-08T18:01:15.285Z,13.95
2022-10-08T18:03:44.406Z,13.51
2022-10-08T18:06:12.354Z,13.81
2022-10-08T18:08:39.487Z,13.97
2022-10-08T18:11:10.009Z,13.49
2022-10-08T18:13:38.083Z,13.94
2022-10-08T18:16:14.570Z,13.99
2022-10-08T18:18:43.519Z,13.87
2022-10-08T18:21:12.755Z,13.99
2022-10-08T18:23:43.210Z,13.98
2022-10-08T18:26:21.724Z,13.54
2022-10-08T18:28:51.886Z,13.86
2022-10-08T18:31:20.636Z,13.55
2022-10-08T18:33:50.359Z,13.91
2022-10-08T18:36:20.232Z,13.89
2022-10-08T18:38:52.912Z,13.89
2022-10-08T18:41:29.240Z,13.41
2022-10-08T18:43:59.235Z,13.94
2022-10-08T18:46:27.109Z,13.95
2022-10-08T18:48:55.327Z,13.92
2022-10-08T18:51:25.244Z,13.98
2022-10-08T18:53:53.955Z,13.85
2022-10-08T18:56:29.328Z,14.02
2022-10-08T18:58:58.310Z,14.13
2022-10-08T19:01:27.609Z,14.13
2022-10-08T19:03:57.115Z,14.11
2022-10-08T19:06:27.522Z,14.08
2022-10-08T19:08:59.911Z,14.03
2022-10-08T19:11:42.003Z,14.06
2022-10-08T19:14:13.030Z,14.05
2022-10-08T19:16:40.648Z,13.90
2022-10-08T19:19:12.317Z,14.08
2022-10-08T19:21:39.438Z,14.07
2022-10-08T19:24:08.518Z,13.88
2022-10-08T19:26:35.525Z,14.00
2022-10-08T19:29:02.681Z,13.91
2022-10-08T19:31:32.549Z,13.97
2022-10-08T19:34:04.845Z,13.46
2022-10-08T19:36:34.883Z,13.91
2022-10-08T19:39:05.806Z,13.90
2022-10-08T19:41:33.479Z,13.88
2022-10-08T19:44:00.774Z,13.92
2022-10-08T19:46:28.600Z,13.94
2022-10-08T19:48:58.066Z,13.72
2022-10-08T19:51:27.322Z,13.88
2022-10-08T19:53:54.863Z,13.89
2022-10-08T19:56:22.846Z,13.86
2022-10-08T19:58:53.312Z,13.63
2022-10-08T20:01:34.595Z,13.34
2022-10-08T20:04:03.524Z,13.28
2022-10-08T20:06:32.885Z,13.81
2022-10-08T20:09:02.735Z,13.86
2022-10-08T20:11:31.342Z,13.61
2022-10-08T20:13:59.608Z,13.87
2022-10-08T20:16:29.809Z,13.83
2022-10-08T20:19:22.661Z,13.59
2022-10-08T20:21:51.565Z,13.56
2022-10-08T20:24:19.376Z,13.76
2022-10-08T20:26:46.586Z,13.64
2022-10-08T20:29:19.069Z,13.11
2022-10-08T20:31:49.643Z,13.28
2022-10-08T20:34:23.616Z,13.70
2022-10-08T20:36:51.009Z,13.63
2022-10-08T20:39:20.496Z,13.58
2022-10-08T20:41:48.338Z,13.55
2022-10-08T20:44:15.743Z,13.48
2022-10-08T20:46:43.609Z,13.43
2022-10-08T20:49:13.054Z,13.40
2022-10-08T20:51:41.932Z,13.42
2022-10-08T20:54:14.523Z,13.47
2022-10-08T20:56:43.578Z,13.49
2022-10-08T20:59:15.473Z,13.49
2022-10-08T21:01:42.506Z,13.32
2022-10-08T21:04:09.495Z,13.34
2022-10-08T21:06:42.607Z,13.47
2022-10-08T21:09:10.545Z,13.27
2022-10-08T21:11:38.171Z,13.39
2022-10-08T21:14:07.199Z,13.45
2022-10-08T21:16:37.241Z,13.44
2022-10-08T21:19:07.430Z,13.31
2022-10-08T21:21:34.934Z,13.36
2022-10-08T21:24:01.967Z,13.39
2022-10-08T21:26:31.244Z,13.35
2022-10-08T21:29:00.886Z,13.36
2022-10-08T21:31:31.157Z,13.01
2022-10-08T21:33:59.188Z,13.04
2022-10-08T21:36:37.808Z,13.37
2022-10-08T21:39:06.845Z,13.33
2022-10-08T21:41:35.538Z,13.35
2022-10-08T21:44:05.242Z,13.35
2022-10-08T21:46:34.760Z,13.33
2022-10-08T21:49:08.163Z,13.39
2022-10-08T21:51:35.451Z,13.33
2022-10-08T21:54:04.804Z,12.85
2022-10-08T21:56:34.572Z,13.36
2022-10-08T21:59:02.807Z,13.29
2022-10-08T22:01:35.271Z,13.23
2022-10-08T22:04:08.258Z,13.23
2022-10-08T22:06:40.921Z,13.24
2022-10-08T22:09:12.020Z,13.32
2022-10-08T22:11:39.658Z,13.25
2022-10-08T22:14:07.309Z,13.14
2022-10-08T22:16:34.649Z,13.27
2022-10-08T22:19:01.621Z,13.35
2022-10-08T22:21:28.712Z,12.75
2022-10-08T22:23:55.961Z,13.15
2022-10-08T22:26:28.999Z,13.22
2022-10-08T22:28:57.037Z,12.56
2022-10-08T22:31:25.195Z,13.19
2022-10-08T22:33:52.642Z,13.13
2022-10-08T22:36:28.103Z,13.20
2022-10-08T22:38:56.035Z,13.12
2022-10-08T22:41:29.226Z,13.01
2022-10-08T22:43:56.301Z,12.73
2022-10-08T22:46:36.402Z,13.14
2022-10-08T22:49:07.297Z,12.73
2022-10-08T22:51:34.785Z,13.03
2022-10-08T22:54:01.878Z,12.69
2022-10-08T22:56:30.837Z,13.06
2022-10-08T22:58:59.361Z,12.95
2022-10-08T23:01:27.976Z,13.07
2022-10-08T23:03:55.430Z,12.92
2022-10-08T23:06:24.156Z,12.93
2022-10-08T23:08:57.265Z,12.90
2022-10-08T23:11:24.880Z,12.66
2022-10-08T23:13:54.725Z,12.96
2022-10-08T23:16:22.495Z,12.86
2022-10-08T23:19:01.321Z,12.94
2022-10-08T23:21:28.892Z,12.96
2022-10-08T23:23:56.382Z,12.87
2022-10-08T23:26:24.780Z,12.86
2022-10-08T23:28:54.244Z,12.33
2022-10-08T23:31:23.817Z,12.91
2022-10-08T23:33:52.509Z,12.82
2022-10-08T23:36:30.449Z,12.90
2022-10-08T23:38:57.634Z,12.82
2022-10-08T23:41:26.075Z,12.77
2022-10-08T23:43:54.352Z,12.87
2022-10-08T23:46:23.997Z,12.87
2022-10-08T23:48:51.847Z,12.75
2022-10-08T23:51:20.039Z,12.83
2022-10-08T23:53:48.195Z,12.77
2022-10-08T23:56:15.484Z,12.66
2022-10-08T23:58:42.810Z,12.73
